sensor_id;sensor_type;location;lat;lon;timestamp;temperature;humidity
23671;DHT22;12012;51.998;7.614;2023-03-31T00:00:10;10.60;1.00
23671;DHT22;12012;51.998;7.614;2023-03-31T00:02:39;10.50;1.00
23671;DHT22;12012;51.998;7.614;2023-03-31T00:05:07;10.50;1.00
23671;DHT22;12012;51.998;7.614;2023-03-31T00:07:33;10.50;1.00
23671;DHT22;12012;51.998;7.614;2023-03-31T00:10:03;10.50;1.00
23671;DHT22;12012;51.998;7.614;2023-03-31T00:12:29;10.50;1.00
23671;DHT22;12012;51.998;7.614;2023-03-31T00:14:55;10.40;1.00
23671;DHT22;12012;51.998;7.614;2023-03-31T00:17:20;10.40;1.00
23671;DHT22;12012;51.998;7.614;2023-03-31T00:19:46;10.40;1.00
23671;DHT22;12012;51.998;7.614;2023-03-31T00:22:17;10.40;1.00
23671;DHT22;12012;51.998;7.614;2023-03-31T00:24:46;10.40;1.00
23671;DHT22;12012;51.998;7.614;2023-03-31T00:27:12;10.40;1.00
23671;DHT22;12012;51.998;7.614;2023-03-31T00:29:38;10.40;1.00
23671;DHT22;12012;51.998;7.614;2023-03-31T00:32:06;10.40;1.00
23671;DHT22;12012;51.998;7.614;2023-03-31T00:34:32;10.40;1.00
23671;DHT22;12012;51.998;7.614;2023-03-31T00:36:59;10.30;1.00
23671;DHT22;12012;51.998;7.614;2023-03-31T00:39:28;10.30;1.00
23671;DHT22;12012;51.998;7.614;2023-03-31T00:41:57;10.30;1.00
23671;DHT22;12012;51.998;7.614;2023-03-31T00:44:23;10.30;1.00
23671;DHT22;12012;51.998;7.614;2023-03-31T00:47:02;10.30;1.00
23671;DHT22;12012;51.998;7.614;2023-03-31T00:50:05;10.30;1.00
23671;DHT22;12012;51.998;7.614;2023-03-31T00:52:31;10.30;1.00
23671;DHT22;12012;51.998;7.614;2023-03-31T00:55:04;10.20;1.00
23671;DHT22;12012;51.998;7.614;2023-03-31T00:57:33;10.20;1.00
23671;DHT22;12012;51.998;7.614;2023-03-31T01:00:04;10.20;1.00
23671;DHT22;12012;51.998;7.614;2023-03-31T01:02:42;10.20;1.00
23671;DHT22;12012;51.998;7.614;2023-03-31T01:05:17;10.10;1.00
23671;DHT22;12012;51.998;7.614;2023-03-31T01:07:47;10.10;1.00
23671;DHT22;12012;51.998;7.614;2023-03-31T01:10:15;10.10;1.00
23671;DHT22;12012;51.998;7.614;2023-03-31T01:12:43;10.10;1.00
23671;DHT22;12012;51.998;7.614;2023-03-31T01:15:10;10.10;1.00
23671;DHT22;12012;51.998;7.614;2023-03-31T01:17:36;10.10;1.00
23671;DHT22;12012;51.998;7.614;2023-03-31T01:34:28;10.20;1.00
23671;DHT22;12012;51.998;7.614;2023-03-31T01:40:14;10.20;1.00
23671;DHT22;12012;51.998;7.614;2023-03-31T01:48:16;10.30;1.00
23671;DHT22;12012;51.998;7.614;2023-03-31T01:50:54;10.30;1.00
23671;DHT22;12012;51.998;7.614;2023-03-31T01:53:45;10.40;1.00
23671;DHT22;12012;51.998;7.614;2023-03-31T01:58:55;10.40;1.00
23671;DHT22;12012;51.998;7.614;2023-03-31T02:01:36;10.40;1.00
23671;DHT22;12012;51.998;7.614;2023-03-31T02:04:20;10.40;1.00
23671;DHT22;12012;51.998;7.614;2023-03-31T02:06:52;10.50;1.00
23671;DHT22;12012;51.998;7.614;2023-03-31T02:09:25;10.50;1.00
23671;DHT22;12012;51.998;7.614;2023-03-31T02:11:53;10.50;1.00
23671;DHT22;12012;51.998;7.614;2023-03-31T02:14:23;10.60;1.00
23671;DHT22;12012;51.998;7.614;2023-03-31T02:16:53;10.60;1.00
23671;DHT22;12012;51.998;7.614;2023-03-31T02:19:26;10.60;1.00
23671;DHT22;12012;51.998;7.614;2023-03-31T02:21:53;10.70;1.00
23671;DHT22;12012;51.998;7.614;2023-03-31T02:24:22;10.70;1.00
23671;DHT22;12012;51.998;7.614;2023-03-31T02:27:20;10.70;1.00
23671;DHT22;12012;51.998;7.614;2023-03-31T02:29:47;10.60;1.00
23671;DHT22;12012;51.998;7.614;2023-03-31T02:32:22;10.60;1.00
23671;DHT22;12012;51.998;7.614;2023-03-31T02:34:49;10.50;1.00
23671;DHT22;12012;51.998;7.614;2023-03-31T02:37:15;10.40;1.00
23671;DHT22;12012;51.998;7.614;2023-03-31T02:39:43;10.40;1.00
23671;DHT22;12012;51.998;7.614;2023-03-31T02:42:10;10.30;1.00
23671;DHT22;12012;51.998;7.614;2023-03-31T02:44:37;10.30;1.00
23671;DHT22;12012;51.998;7.614;2023-03-31T02:47:11;10.20;1.00
23671;DHT22;12012;51.998;7.614;2023-03-31T02:49:40;10.20;1.00
23671;DHT22;12012;51.998;7.614;2023-03-31T02:52:39;10.10;1.00
23671;DHT22;12012;51.998;7.614;2023-03-31T02:55:17;10.10;1.00
23671;DHT22;12012;51.998;7.614;2023-03-31T02:57:53;10.10;5.20
23671;DHT22;12012;51.998;7.614;2023-03-31T03:06:06;10.00;23.40
23671;DHT22;12012;51.998;7.614;2023-03-31T03:11:31;10.00;42.00
23671;DHT22;12012;51.998;7.614;2023-03-31T03:16:42;9.90;55.20
23671;DHT22;12012;51.998;7.614;2023-03-31T03:19:09;10.00;58.00
23671;DHT22;12012;51.998;7.614;2023-03-31T03:21:41;9.90;58.70
23671;DHT22;12012;51.998;7.614;2023-03-31T03:24:08;9.90;75.60
23671;DHT22;12012;51.998;7.614;2023-03-31T03:26:34;9.90;80.80
23671;DHT22;12012;51.998;7.614;2023-03-31T03:28:59;9.90;83.60
23671;DHT22;12012;51.998;7.614;2023-03-31T03:31:25;9.90;76.70
23671;DHT22;12012;51.998;7.614;2023-03-31T03:33:51;9.90;88.50
23671;DHT22;12012;51.998;7.614;2023-03-31T03:36:17;9.90;86.40
23671;DHT22;12012;51.998;7.614;2023-03-31T03:38:43;9.90;85.40
23671;DHT22;12012;51.998;7.614;2023-03-31T03:41:09;9.90;82.20
23671;DHT22;12012;51.998;7.614;2023-03-31T03:43:34;9.90;76.80
23671;DHT22;12012;51.998;7.614;2023-03-31T03:46:00;9.90;73.40
23671;DHT22;12012;51.998;7.614;2023-03-31T03:48:26;9.90;71.10
23671;DHT22;12012;51.998;7.614;2023-03-31T03:50:52;9.90;68.90
23671;DHT22;12012;51.998;7.614;2023-03-31T03:53:19;9.90;61.20
23671;DHT22;12012;51.998;7.614;2023-03-31T03:55:45;9.90;69.20
23671;DHT22;12012;51.998;7.614;2023-03-31T03:58:14;9.90;62.60
23671;DHT22;12012;51.998;7.614;2023-03-31T04:00:40;9.90;64.20
23671;DHT22;12012;51.998;7.614;2023-03-31T04:03:06;9.90;72.70
23671;DHT22;12012;51.998;7.614;2023-03-31T04:05:31;9.90;75.90
23671;DHT22;12012;51.998;7.614;2023-03-31T04:07:57;9.90;92.60
23671;DHT22;12012;51.998;7.614;2023-03-31T04:10:22;9.90;93.20
23671;DHT22;12012;51.998;7.614;2023-03-31T04:12:48;9.90;95.80
23671;DHT22;12012;51.998;7.614;2023-03-31T04:15:13;9.90;95.90
23671;DHT22;12012;51.998;7.614;2023-03-31T04:17:39;9.90;96.80
23671;DHT22;12012;51.998;7.614;2023-03-31T04:20:07;9.90;99.90
23671;DHT22;12012;51.998;7.614;2023-03-31T04:22:34;9.90;99.90
23671;DHT22;12012;51.998;7.614;2023-03-31T04:25:06;9.90;99.90
23671;DHT22;12012;51.998;7.614;2023-03-31T04:27:35;9.90;99.90
23671;DHT22;12012;51.998;7.614;2023-03-31T04:30:01;9.90;99.90
23671;DHT22;12012;51.998;7.614;2023-03-31T04:32:26;9.90;99.90
23671;DHT22;12012;51.998;7.614;2023-03-31T04:34:52;9.90;99.90
23671;DHT22;12012;51.998;7.614;2023-03-31T04:37:31;9.90;99.90
23671;DHT22;12012;51.998;7.614;2023-03-31T04:40:02;9.90;99.90
23671;DHT22;12012;51.998;7.614;2023-03-31T04:42:32;9.90;99.90
23671;DHT22;12012;51.998;7.614;2023-03-31T04:44:58;9.90;99.90
23671;DHT22;12012;51.998;7.614;2023-03-31T04:47:23;9.90;99.90
23671;DHT22;12012;51.998;7.614;2023-03-31T04:49:49;9.90;99.90
23671;DHT22;12012;51.998;7.614;2023-03-31T04:52:15;9.90;99.90
23671;DHT22;12012;51.998;7.614;2023-03-31T04:54:40;9.90;99.90
23671;DHT22;12012;51.998;7.614;2023-03-31T04:57:06;9.90;99.90
23671;DHT22;12012;51.998;7.614;2023-03-31T04:59:31;9.90;99.90
23671;DHT22;12012;51.998;7.614;2023-03-31T05:01:57;9.90;99.90
23671;DHT22;12012;51.998;7.614;2023-03-31T05:04:22;9.90;99.90
23671;DHT22;12012;51.998;7.614;2023-03-31T05:06:48;9.90;99.90
23671;DHT22;12012;51.998;7.614;2023-03-31T05:09:14;9.90;99.90
23671;DHT22;12012;51.998;7.614;2023-03-31T05:11:40;9.90;99.90
23671;DHT22;12012;51.998;7.614;2023-03-31T05:14:06;9.90;99.90
23671;DHT22;12012;51.998;7.614;2023-03-31T05:16:32;9.90;99.90
23671;DHT22;12012;51.998;7.614;2023-03-31T05:18:57;9.90;99.90
23671;DHT22;12012;51.998;7.614;2023-03-31T05:21:23;9.90;99.90
23671;DHT22;12012;51.998;7.614;2023-03-31T05:23:51;10.00;99.90
23671;DHT22;12012;51.998;7.614;2023-03-31T05:26:17;9.90;99.90
23671;DHT22;12012;51.998;7.614;2023-03-31T05:28:43;9.90;99.90
23671;DHT22;12012;51.998;7.614;2023-03-31T05:31:09;10.00;99.90
23671;DHT22;12012;51.998;7.614;2023-03-31T05:33:37;10.00;99.90
23671;DHT22;12012;51.998;7.614;2023-03-31T05:36:10;10.00;99.90
23671;DHT22;12012;51.998;7.614;2023-03-31T05:38:36;10.00;99.90
23671;DHT22;12012;51.998;7.614;2023-03-31T05:41:02;10.00;99.90
23671;DHT22;12012;51.998;7.614;2023-03-31T05:43:28;10.00;99.90
23671;DHT22;12012;51.998;7.614;2023-03-31T05:45:53;10.00;99.90
23671;DHT22;12012;51.998;7.614;2023-03-31T05:48:19;10.00;99.90
23671;DHT22;12012;51.998;7.614;2023-03-31T05:50:45;10.00;99.90
23671;DHT22;12012;51.998;7.614;2023-03-31T05:53:11;10.00;99.90
23671;DHT22;12012;51.998;7.614;2023-03-31T05:55:37;10.00;99.90
23671;DHT22;12012;51.998;7.614;2023-03-31T05:58:03;10.00;99.90
23671;DHT22;12012;51.998;7.614;2023-03-31T06:00:29;10.10;99.90
23671;DHT22;12012;51.998;7.614;2023-03-31T06:02:55;10.10;99.90
23671;DHT22;12012;51.998;7.614;2023-03-31T06:05:22;10.10;99.90
23671;DHT22;12012;51.998;7.614;2023-03-31T06:07:51;10.10;99.90
23671;DHT22;12012;51.998;7.614;2023-03-31T06:10:17;10.10;99.90
23671;DHT22;12012;51.998;7.614;2023-03-31T06:12:42;10.10;99.90
23671;DHT22;12012;51.998;7.614;2023-03-31T06:15:08;10.10;99.90
23671;DHT22;12012;51.998;7.614;2023-03-31T06:17:34;10.20;99.90
23671;DHT22;12012;51.998;7.614;2023-03-31T06:20:00;10.20;99.90
23671;DHT22;12012;51.998;7.614;2023-03-31T06:22:26;10.30;99.90
23671;DHT22;12012;51.998;7.614;2023-03-31T06:24:51;10.30;99.90
23671;DHT22;12012;51.998;7.614;2023-03-31T06:27:17;10.40;99.90
23671;DHT22;12012;51.998;7.614;2023-03-31T06:29:42;10.50;98.00
23671;DHT22;12012;51.998;7.614;2023-03-31T06:32:08;10.50;96.10
23671;DHT22;12012;51.998;7.614;2023-03-31T06:34:34;10.60;93.90
23671;DHT22;12012;51.998;7.614;2023-03-31T06:36:59;10.60;92.50
23671;DHT22;12012;51.998;7.614;2023-03-31T06:39:25;10.70;90.70
23671;DHT22;12012;51.998;7.614;2023-03-31T06:41:50;10.80;83.50
23671;DHT22;12012;51.998;7.614;2023-03-31T06:44:16;10.80;77.40
23671;DHT22;12012;51.998;7.614;2023-03-31T06:46:43;10.90;74.00
23671;DHT22;12012;51.998;7.614;2023-03-31T06:49:09;10.90;67.80
23671;DHT22;12012;51.998;7.614;2023-03-31T06:51:35;10.90;62.30
23671;DHT22;12012;51.998;7.614;2023-03-31T06:54:00;10.90;57.20
23671;DHT22;12012;51.998;7.614;2023-03-31T06:56:26;11.00;52.80
23671;DHT22;12012;51.998;7.614;2023-03-31T06:58:52;11.00;34.40
23671;DHT22;12012;51.998;7.614;2023-03-31T07:01:18;11.00;27.40
23671;DHT22;12012;51.998;7.614;2023-03-31T07:03:43;11.00;19.80
23671;DHT22;12012;51.998;7.614;2023-03-31T07:06:09;11.00;16.80
23671;DHT22;12012;51.998;7.614;2023-03-31T07:08:34;11.10;11.30
23671;DHT22;12012;51.998;7.614;2023-03-31T07:11:00;11.10;1.00
23671;DHT22;12012;51.998;7.614;2023-03-31T07:13:26;11.10;1.00
23671;DHT22;12012;51.998;7.614;2023-03-31T07:15:52;11.10;1.00
23671;DHT22;12012;51.998;7.614;2023-03-31T07:18:19;11.10;1.00
23671;DHT22;12012;51.998;7.614;2023-03-31T07:20:47;11.10;1.00
23671;DHT22;12012;51.998;7.614;2023-03-31T07:23:14;11.10;1.00
23671;DHT22;12012;51.998;7.614;2023-03-31T07:25:39;11.10;1.00
23671;DHT22;12012;51.998;7.614;2023-03-31T07:28:05;11.10;1.00
23671;DHT22;12012;51.998;7.614;2023-03-31T07:30:31;11.10;1.00
23671;DHT22;12012;51.998;7.614;2023-03-31T07:32:57;11.10;1.00
23671;DHT22;12012;51.998;7.614;2023-03-31T07:35:23;11.10;1.00
23671;DHT22;12012;51.998;7.614;2023-03-31T07:37:50;11.10;1.00
23671;DHT22;12012;51.998;7.614;2023-03-31T07:40:24;11.10;1.00
23671;DHT22;12012;51.998;7.614;2023-03-31T07:42:50;11.00;1.00
23671;DHT22;12012;51.998;7.614;2023-03-31T07:45:19;10.90;1.00
23671;DHT22;12012;51.998;7.614;2023-03-31T07:47:46;10.90;1.00
23671;DHT22;12012;51.998;7.614;2023-03-31T07:50:13;10.70;1.00
23671;DHT22;12012;51.998;7.614;2023-03-31T07:52:40;10.70;1.00
23671;DHT22;12012;51.998;7.614;2023-03-31T07:55:06;10.60;3.70
23671;DHT22;12012;51.998;7.614;2023-03-31T07:57:33;10.50;10.10
23671;DHT22;12012;51.998;7.614;2023-03-31T07:59:59;10.50;24.60
23671;DHT22;12012;51.998;7.614;2023-03-31T08:02:24;10.60;36.90
23671;DHT22;12012;51.998;7.614;2023-03-31T08:04:50;10.60;39.20
23671;DHT22;12012;51.998;7.614;2023-03-31T08:07:15;10.60;43.40
23671;DHT22;12012;51.998;7.614;2023-03-31T08:09:44;10.60;47.60
23671;DHT22;12012;51.998;7.614;2023-03-31T08:12:10;10.60;45.40
23671;DHT22;12012;51.998;7.614;2023-03-31T08:14:36;10.60;47.90
23671;DHT22;12012;51.998;7.614;2023-03-31T08:17:01;10.60;48.70
23671;DHT22;12012;51.998;7.614;2023-03-31T08:19:28;10.60;49.90
23671;DHT22;12012;51.998;7.614;2023-03-31T08:21:53;10.70;52.40
23671;DHT22;12012;51.998;7.614;2023-03-31T08:24:19;10.70;52.20
23671;DHT22;12012;51.998;7.614;2023-03-31T08:26:45;10.80;51.90
23671;DHT22;12012;51.998;7.614;2023-03-31T08:29:11;10.80;51.30
23671;DHT22;12012;51.998;7.614;2023-03-31T08:31:36;10.80;53.20
23671;DHT22;12012;51.998;7.614;2023-03-31T08:34:02;10.80;50.00
23671;DHT22;12012;51.998;7.614;2023-03-31T08:36:29;10.70;51.70
23671;DHT22;12012;51.998;7.614;2023-03-31T08:38:55;10.70;53.40
23671;DHT22;12012;51.998;7.614;2023-03-31T08:41:37;10.70;55.10
23671;DHT22;12012;51.998;7.614;2023-03-31T08:44:16;10.70;59.10
23671;DHT22;12012;51.998;7.614;2023-03-31T08:46:43;10.70;66.20
23671;DHT22;12012;51.998;7.614;2023-03-31T08:49:14;10.60;68.80
23671;DHT22;12012;51.998;7.614;2023-03-31T08:51:47;10.60;74.80
23671;DHT22;12012;51.998;7.614;2023-03-31T08:54:40;10.50;83.90
23671;DHT22;12012;51.998;7.614;2023-03-31T08:57:24;10.50;85.20
23671;DHT22;12012;51.998;7.614;2023-03-31T08:59:53;10.50;86.70
23671;DHT22;12012;51.998;7.614;2023-03-31T09:03:02;10.50;90.50
23671;DHT22;12012;51.998;7.614;2023-03-31T09:05:48;10.50;92.10
23671;DHT22;12012;51.998;7.614;2023-03-31T09:16:12;10.60;94.50
23671;DHT22;12012;51.998;7.614;2023-03-31T09:18:40;10.60;95.40
23671;DHT22;12012;51.998;7.614;2023-03-31T09:21:22;10.50;95.70
23671;DHT22;12012;51.998;7.614;2023-03-31T09:24:16;10.50;96.60
23671;DHT22;12012;51.998;7.614;2023-03-31T09:29:23;10.40;99.90
23671;DHT22;12012;51.998;7.614;2023-03-31T09:31:52;10.30;99.90
23671;DHT22;12012;51.998;7.614;2023-03-31T09:34:29;10.30;99.90
23671;DHT22;12012;51.998;7.614;2023-03-31T09:36:56;10.30;99.90
23671;DHT22;12012;51.998;7.614;2023-03-31T09:39:22;10.20;99.90
23671;DHT22;12012;51.998;7.614;2023-03-31T09:41:49;10.20;99.90
23671;DHT22;12012;51.998;7.614;2023-03-31T09:46:53;10.20;99.90
23671;DHT22;12012;51.998;7.614;2023-03-31T09:49:28;10.10;99.90
23671;DHT22;12012;51.998;7.614;2023-03-31T09:52:22;10.20;99.90
23671;DHT22;12012;51.998;7.614;2023-03-31T09:54:52;10.10;99.90
23671;DHT22;12012;51.998;7.614;2023-03-31T09:57:30;10.20;99.90
23671;DHT22;12012;51.998;7.614;2023-03-31T10:04:58;10.30;99.90
23671;DHT22;12012;51.998;7.614;2023-03-31T10:07:24;10.30;99.90
23671;DHT22;12012;51.998;7.614;2023-03-31T10:09:52;10.40;99.90
23671;DHT22;12012;51.998;7.614;2023-03-31T10:12:24;10.50;99.90
23671;DHT22;12012;51.998;7.614;2023-03-31T10:14:51;10.60;99.90
23671;DHT22;12012;51.998;7.614;2023-03-31T10:17:22;10.70;99.90
23671;DHT22;12012;51.998;7.614;2023-03-31T10:20:17;10.80;99.90
23671;DHT22;12012;51.998;7.614;2023-03-31T10:22:44;11.00;99.90
23671;DHT22;12012;51.998;7.614;2023-03-31T10:25:22;11.20;99.90
23671;DHT22;12012;51.998;7.614;2023-03-31T10:27:53;11.30;98.20
23671;DHT22;12012;51.998;7.614;2023-03-31T10:30:25;11.50;95.90
23671;DHT22;12012;51.998;7.614;2023-03-31T10:32:53;11.60;93.10
23671;DHT22;12012;51.998;7.614;2023-03-31T10:35:29;11.60;85.50
23671;DHT22;12012;51.998;7.614;2023-03-31T10:38:01;11.60;76.80
23671;DHT22;12012;51.998;7.614;2023-03-31T10:40:29;11.60;74.40
23671;DHT22;12012;51.998;7.614;2023-03-31T10:43:11;11.70;70.40
23671;DHT22;12012;51.998;7.614;2023-03-31T10:45:58;11.80;66.70
23671;DHT22;12012;51.998;7.614;2023-03-31T10:48:31;12.00;57.70
23671;DHT22;12012;51.998;7.614;2023-03-31T10:51:00;12.20;50.40
23671;DHT22;12012;51.998;7.614;2023-03-31T10:53:28;12.30;46.50
23671;DHT22;12012;51.998;7.614;2023-03-31T11:07:21;12.60;1.00
23671;DHT22;12012;51.998;7.614;2023-03-31T11:15:39;13.10;1.00
23671;DHT22;12012;51.998;7.614;2023-03-31T11:18:45;13.60;1.00
23671;DHT22;12012;51.998;7.614;2023-03-31T11:24:07;14.20;99.90
23671;DHT22;12012;51.998;7.614;2023-03-31T11:26:50;14.50;19.40
23671;DHT22;12012;51.998;7.614;2023-03-31T11:46:11;14.20;1.00
23671;DHT22;12012;51.998;7.614;2023-03-31T11:49:08;13.90;99.90
23671;DHT22;12012;51.998;7.614;2023-03-31T11:51:53;13.80;99.90
23671;DHT22;12012;51.998;7.614;2023-03-31T11:54:29;13.70;1.00
23671;DHT22;12012;51.998;7.614;2023-03-31T11:56:57;14.10;66.40
23671;DHT22;12012;51.998;7.614;2023-03-31T11:59:27;14.70;94.70
23671;DHT22;12012;51.998;7.614;2023-03-31T12:04:40;14.60;99.90
23671;DHT22;12012;51.998;7.614;2023-03-31T12:10:53;14.20;1.00
23671;DHT22;12012;51.998;7.614;2023-03-31T12:16:27;13.70;99.90
23671;DHT22;12012;51.998;7.614;2023-03-31T12:19:46;13.40;1.00
23671;DHT22;12012;51.998;7.614;2023-03-31T12:22:31;13.40;99.90
23671;DHT22;12012;51.998;7.614;2023-03-31T12:25:02;14.80;1.00
23671;DHT22;12012;51.998;7.614;2023-03-31T12:27:38;15.00;99.90
23671;DHT22;12012;51.998;7.614;2023-03-31T12:32:55;15.10;99.90
23671;DHT22;12012;51.998;7.614;2023-03-31T12:40:47;15.10;36.90
23671;DHT22;12012;51.998;7.614;2023-03-31T12:43:41;14.80;1.00
23671;DHT22;12012;51.998;7.614;2023-03-31T12:49:45;14.20;99.90
23671;DHT22;12012;51.998;7.614;2023-03-31T13:01:29;14.20;1.00
23671;DHT22;12012;51.998;7.614;2023-03-31T13:04:20;14.40;99.90
23671;DHT22;12012;51.998;7.614;2023-03-31T13:06:52;14.50;99.90
23671;DHT22;12012;51.998;7.614;2023-03-31T13:11:44;14.70;1.00
23671;DHT22;12012;51.998;7.614;2023-03-31T13:14:18;14.70;99.90
23671;DHT22;12012;51.998;7.614;2023-03-31T13:16:44;14.80;78.10
23671;DHT22;12012;51.998;7.614;2023-03-31T13:19:24;14.80;99.90
23671;DHT22;12012;51.998;7.614;2023-03-31T13:21:58;14.90;99.90
23671;DHT22;12012;51.998;7.614;2023-03-31T13:24:27;14.90;99.90
23671;DHT22;12012;51.998;7.614;2023-03-31T13:26:54;15.00;1.00
23671;DHT22;12012;51.998;7.614;2023-03-31T13:29:41;15.00;1.00
23671;DHT22;12012;51.998;7.614;2023-03-31T13:32:24;15.00;1.00
23671;DHT22;12012;51.998;7.614;2023-03-31T13:35:01;15.00;99.90
23671;DHT22;12012;51.998;7.614;2023-03-31T13:38:01;15.00;99.90
23671;DHT22;12012;51.998;7.614;2023-03-31T13:52:01;14.80;99.90
23671;DHT22;12012;51.998;7.614;2023-03-31T14:08:10;14.70;99.90
23671;DHT22;12012;51.998;7.614;2023-03-31T14:10:40;14.80;99.90
23671;DHT22;12012;51.998;7.614;2023-03-31T14:13:17;14.90;99.90
23671;DHT22;12012;51.998;7.614;2023-03-31T14:18:25;15.20;39.30
23671;DHT22;12012;51.998;7.614;2023-03-31T14:29:55;14.90;10.90
23671;DHT22;12012;51.998;7.614;2023-03-31T14:37:06;15.30;1.00
23671;DHT22;12012;51.998;7.614;2023-03-31T14:39:56;15.40;1.00
23671;DHT22;12012;51.998;7.614;2023-03-31T14:42:36;15.50;1.00
23671;DHT22;12012;51.998;7.614;2023-03-31T14:45:03;15.60;1.00
23671;DHT22;12012;51.998;7.614;2023-03-31T14:47:30;15.80;1.00
23671;DHT22;12012;51.998;7.614;2023-03-31T14:50:15;16.10;1.00
23671;DHT22;12012;51.998;7.614;2023-03-31T14:52:46;16.30;99.90
23671;DHT22;12012;51.998;7.614;2023-03-31T14:55:16;16.40;99.90
23671;DHT22;12012;51.998;7.614;2023-03-31T14:57:44;16.70;99.90
23671;DHT22;12012;51.998;7.614;2023-03-31T15:00:13;16.80;99.90
23671;DHT22;12012;51.998;7.614;2023-03-31T15:02:42;16.80;99.90
23671;DHT22;12012;51.998;7.614;2023-03-31T15:05:27;16.70;99.90
23671;DHT22;12012;51.998;7.614;2023-03-31T15:07:58;16.70;99.90
23671;DHT22;12012;51.998;7.614;2023-03-31T15:10:24;16.50;99.90
23671;DHT22;12012;51.998;7.614;2023-03-31T15:12:54;16.30;99.90
23671;DHT22;12012;51.998;7.614;2023-03-31T15:15:20;16.10;99.90
23671;DHT22;12012;51.998;7.614;2023-03-31T15:17:46;15.80;99.90
23671;DHT22;12012;51.998;7.614;2023-03-31T15:20:29;15.60;99.90
23671;DHT22;12012;51.998;7.614;2023-03-31T15:22:56;15.30;1.00
23671;DHT22;12012;51.998;7.614;2023-03-31T15:25:29;15.00;1.00
23671;DHT22;12012;51.998;7.614;2023-03-31T15:28:05;14.80;12.40
23671;DHT22;12012;51.998;7.614;2023-03-31T15:30:31;14.50;99.90
23671;DHT22;12012;51.998;7.614;2023-03-31T15:32:57;14.40;99.90
23671;DHT22;12012;51.998;7.614;2023-03-31T15:35:29;14.30;99.90
23671;DHT22;12012;51.998;7.614;2023-03-31T15:37:56;14.10;1.00
23671;DHT22;12012;51.998;7.614;2023-03-31T15:40:30;13.90;1.00
23671;DHT22;12012;51.998;7.614;2023-03-31T15:43:02;13.70;99.90
23671;DHT22;12012;51.998;7.614;2023-03-31T15:48:04;13.20;83.20
23671;DHT22;12012;51.998;7.614;2023-03-31T15:50:32;13.10;1.00
23671;DHT22;12012;51.998;7.614;2023-03-31T15:52:58;13.00;1.00
23671;DHT22;12012;51.998;7.614;2023-03-31T15:55:31;13.00;1.00
23671;DHT22;12012;51.998;7.614;2023-03-31T15:58:03;13.00;1.00
23671;DHT22;12012;51.998;7.614;2023-03-31T16:00:44;12.90;99.90
23671;DHT22;12012;51.998;7.614;2023-03-31T16:03:34;12.80;99.90
23671;DHT22;12012;51.998;7.614;2023-03-31T16:08:44;12.70;99.90
23671;DHT22;12012;51.998;7.614;2023-03-31T16:11:33;12.80;99.90
23671;DHT22;12012;51.998;7.614;2023-03-31T16:14:03;12.90;1.00
23671;DHT22;12012;51.998;7.614;2023-03-31T16:16:31;12.90;99.90
23671;DHT22;12012;51.998;7.614;2023-03-31T16:19:03;13.00;1.00
23671;DHT22;12012;51.998;7.614;2023-03-31T16:21:36;13.00;1.00
23671;DHT22;12012;51.998;7.614;2023-03-31T16:24:03;13.00;99.90
23671;DHT22;12012;51.998;7.614;2023-03-31T16:26:29;12.90;99.90
23671;DHT22;12012;51.998;7.614;2023-03-31T16:28:56;12.90;1.00
23671;DHT22;12012;51.998;7.614;2023-03-31T16:31:38;12.90;1.00
23671;DHT22;12012;51.998;7.614;2023-03-31T16:34:06;12.80;1.00
23671;DHT22;12012;51.998;7.614;2023-03-31T16:36:32;12.70;36.50
23671;DHT22;12012;51.998;7.614;2023-03-31T16:39:00;12.60;99.90
23671;DHT22;12012;51.998;7.614;2023-03-31T16:41:30;12.60;99.90
23671;DHT22;12012;51.998;7.614;2023-03-31T16:43:56;12.50;99.90
23671;DHT22;12012;51.998;7.614;2023-03-31T16:46:22;12.40;1.00
23671;DHT22;12012;51.998;7.614;2023-03-31T16:48:48;12.30;99.90
23671;DHT22;12012;51.998;7.614;2023-03-31T16:51:14;12.20;1.00
23671;DHT22;12012;51.998;7.614;2023-03-31T16:53:40;12.10;99.90
23671;DHT22;12012;51.998;7.614;2023-03-31T16:56:07;11.90;1.00
23671;DHT22;12012;51.998;7.614;2023-03-31T16:58:33;11.70;1.00
23671;DHT22;12012;51.998;7.614;2023-03-31T17:01:00;11.50;1.00
23671;DHT22;12012;51.998;7.614;2023-03-31T17:03:26;11.30;1.00
23671;DHT22;12012;51.998;7.614;2023-03-31T17:05:56;11.20;99.90
23671;DHT22;12012;51.998;7.614;2023-03-31T17:08:24;11.10;99.90
23671;DHT22;12012;51.998;7.614;2023-03-31T17:11:02;11.10;99.90
23671;DHT22;12012;51.998;7.614;2023-03-31T17:13:28;11.10;1.00
23671;DHT22;12012;51.998;7.614;2023-03-31T17:15:54;11.00;1.00
23671;DHT22;12012;51.998;7.614;2023-03-31T17:18:20;11.00;1.00
23671;DHT22;12012;51.998;7.614;2023-03-31T17:20:45;11.00;1.00
23671;DHT22;12012;51.998;7.614;2023-03-31T17:23:11;11.00;1.00
23671;DHT22;12012;51.998;7.614;2023-03-31T17:25:37;11.00;1.00
23671;DHT22;12012;51.998;7.614;2023-03-31T17:28:03;10.90;1.00
23671;DHT22;12012;51.998;7.614;2023-03-31T17:30:29;10.90;1.00
23671;DHT22;12012;51.998;7.614;2023-03-31T17:32:56;10.90;1.00
23671;DHT22;12012;51.998;7.614;2023-03-31T17:35:23;10.90;1.00
23671;DHT22;12012;51.998;7.614;2023-03-31T17:37:49;10.90;1.00
23671;DHT22;12012;51.998;7.614;2023-03-31T17:40:18;10.80;1.00
23671;DHT22;12012;51.998;7.614;2023-03-31T17:42:44;10.80;1.00
23671;DHT22;12012;51.998;7.614;2023-03-31T17:45:11;10.70;1.00
23671;DHT22;12012;51.998;7.614;2023-03-31T17:47:37;10.70;6.20
23671;DHT22;12012;51.998;7.614;2023-03-31T17:50:03;10.60;19.70
23671;DHT22;12012;51.998;7.614;2023-03-31T17:52:29;10.60;31.30
23671;DHT22;12012;51.998;7.614;2023-03-31T17:54:55;10.50;35.60
23671;DHT22;12012;51.998;7.614;2023-03-31T17:57:22;10.50;43.00
23671;DHT22;12012;51.998;7.614;2023-03-31T17:59:47;10.50;48.70
23671;DHT22;12012;51.998;7.614;2023-03-31T18:02:14;10.40;54.30
23671;DHT22;12012;51.998;7.614;2023-03-31T18:04:40;10.40;53.40
23671;DHT22;12012;51.998;7.614;2023-03-31T18:07:06;10.40;46.10
23671;DHT22;12012;51.998;7.614;2023-03-31T18:09:33;10.40;40.70
23671;DHT22;12012;51.998;7.614;2023-03-31T18:11:58;10.40;40.90
23671;DHT22;12012;51.998;7.614;2023-03-31T18:14:24;10.40;43.50
23671;DHT22;12012;51.998;7.614;2023-03-31T18:16:51;10.40;41.80
23671;DHT22;12012;51.998;7.614;2023-03-31T18:19:17;10.30;42.60
23671;DHT22;12012;51.998;7.614;2023-03-31T18:21:43;10.40;45.40
23671;DHT22;12012;51.998;7.614;2023-03-31T18:24:10;10.30;38.90
23671;DHT22;12012;51.998;7.614;2023-03-31T18:26:35;10.30;45.20
23671;DHT22;12012;51.998;7.614;2023-03-31T18:29:01;10.30;43.90
23671;DHT22;12012;51.998;7.614;2023-03-31T18:31:27;10.30;40.80
23671;DHT22;12012;51.998;7.614;2023-03-31T18:33:53;10.30;35.90
23671;DHT22;12012;51.998;7.614;2023-03-31T18:36:21;10.30;47.70
23671;DHT22;12012;51.998;7.614;2023-03-31T18:38:48;10.30;45.80
23671;DHT22;12012;51.998;7.614;2023-03-31T18:41:14;10.30;48.90
23671;DHT22;12012;51.998;7.614;2023-03-31T18:43:41;10.30;50.30
23671;DHT22;12012;51.998;7.614;2023-03-31T18:46:07;10.30;51.80